Archival Weather

Norman Y Mineta San Jose Intl

San Jose, California (KSJC)

Report from: Saturday, February 17, 2024 7:53 PM PST
Current time: Monday, June 24, 2024 4:15 AM PDT

Current weather – Weather history – Daily summaries
Weather forecast

Present weatherLight rain
Temperature12.8°C (55.0°F)
Dew point10.0°C (50.0°F)
Winds 12 kts (6.2 m/s, 13.8 mph) South-Southeast (150°)
Visibility10 mi. (16.1 km)
Clouds Scattered clouds 2,700 ft. (823 m)
Ceiling: Broken clouds 4,600 ft. (1,402 m)
Overcast 6,500 ft. (1,981 m)
Altimeter29.91 in.Hg (1013 mB)
Precipitiation0.01 in. (0 mm)
Relative humidity83 %
Density altitude-76 ft. (-23 m)
Sea-level pressure101.3 kPa (1013 mB, 29.91 in.Hg)
Remarks Corrected report
Automated weather observing station with precipitation discriminator
Flight conditions Visual Meteorological Conditions
Raw dataKSJC 180353Z COR 15012KT 10SM -RA SCT027 BKN046 OVC065 13/10 A2991 RMK AO2 SLP129 P0001 T01280100
An error has occurred. This application may no longer respond until reloaded. Reload 🗙